createdAt,value
2022-12-03T00:02:16.529Z,22.98
2022-12-03T00:04:43.226Z,26.10
2022-12-03T00:07:09.910Z,27.13
2022-12-03T00:09:36.643Z,33.38
2022-12-03T00:12:03.389Z,27.55
2022-12-03T00:14:30.133Z,31.48
2022-12-03T00:16:56.723Z,26.55
2022-12-03T00:19:23.419Z,29.42
2022-12-03T00:21:50.017Z,28.38
2022-12-03T00:24:16.693Z,27.95
2022-12-03T00:26:43.280Z,30.38
2022-12-03T00:29:11.187Z,32.90
2022-12-03T00:31:37.818Z,33.90
2022-12-03T00:34:04.474Z,32.58
2022-12-03T00:36:31.066Z,34.22
2022-12-03T00:38:57.667Z,33.50
2022-12-03T00:41:24.388Z,27.92
2022-12-03T00:43:50.959Z,32.13
2022-12-03T00:46:21.325Z,31.35
2022-12-03T00:48:48.452Z,35.08
2022-12-03T00:51:15.010Z,34.40
2022-12-03T00:53:41.673Z,32.58
2022-12-03T00:56:08.713Z,33.15
2022-12-03T00:58:35.768Z,36.40
2022-12-03T01:01:02.522Z,32.08
2022-12-03T01:03:29.272Z,37.30
2022-12-03T01:05:55.926Z,36.47
2022-12-03T01:08:22.521Z,37.88
2022-12-03T01:10:49.121Z,51.08
2022-12-03T01:13:15.914Z,35.20
2022-12-03T01:15:42.718Z,36.17
2022-12-03T01:18:09.383Z,33.78
2022-12-03T01:20:36.455Z,35.65
2022-12-03T01:23:03.190Z,36.13
2022-12-03T01:25:30.038Z,28.80
2022-12-03T01:27:56.632Z,36.92
2022-12-03T01:30:23.280Z,38.60
2022-12-03T01:32:49.912Z,32.05
2022-12-03T01:35:16.792Z,35.95
2022-12-03T01:37:43.386Z,33.88
2022-12-03T01:40:15.395Z,32.08
2022-12-03T01:42:42.490Z,27.90
2022-12-03T01:45:21.043Z,33.63
2022-12-03T01:47:47.672Z,35.33
2022-12-03T01:50:20.915Z,34.13
2022-12-03T01:52:47.823Z,37.00
2022-12-03T01:55:18.253Z,32.42
2022-12-03T01:57:51.335Z,39.95
2022-12-03T02:00:20.858Z,31.50
2022-12-03T02:02:51.721Z,33.80
2022-12-03T02:05:21.032Z,28.98
2022-12-03T02:07:48.106Z,32.90
2022-12-03T02:10:16.796Z,34.08
2022-12-03T02:12:58.143Z,32.75
2022-12-03T02:15:25.048Z,29.80
2022-12-03T02:17:52.064Z,29.75
2022-12-03T02:20:19.187Z,29.98
2022-12-03T02:23:47.440Z,29.50
2022-12-03T02:26:14.166Z,26.55
2022-12-03T02:28:40.877Z,28.05
2022-12-03T02:31:07.787Z,31.15
2022-12-03T02:33:35.757Z,26.73
2022-12-03T02:36:04.100Z,29.70
2022-12-03T02:38:34.244Z,28.60
2022-12-03T02:41:06.424Z,32.05
2022-12-03T02:43:33.237Z,24.67
2022-12-03T02:46:02.540Z,23.40
2022-12-03T02:48:33.086Z,23.10
2022-12-03T02:51:03.284Z,30.60
2022-12-03T02:53:36.529Z,22.35
2022-12-03T02:56:05.560Z,24.35
2022-12-03T02:58:33.701Z,48.15
2022-12-03T03:01:02.889Z,27.10
2022-12-03T03:03:30.822Z,22.75
2022-12-03T03:05:59.133Z,25.25
2022-12-03T03:08:26.535Z,24.33
2022-12-03T03:10:54.090Z,23.08
2022-12-03T03:13:21.460Z,23.60
2022-12-03T03:15:48.205Z,26.08
2022-12-03T03:18:15.909Z,26.50
2022-12-03T03:20:43.430Z,23.48
2022-12-03T03:23:12.787Z,21.40
2022-12-03T03:25:43.672Z,21.27
2022-12-03T03:28:11.758Z,27.60
2022-12-03T03:30:40.939Z,24.98
2022-12-03T03:33:08.159Z,21.20
2022-12-03T03:35:36.057Z,22.38
2022-12-03T03:38:02.986Z,20.13
2022-12-03T03:40:29.763Z,23.65
2022-12-03T03:42:57.359Z,28.02
2022-12-03T03:45:28.833Z,23.90
2022-12-03T03:47:57.458Z,22.00
2022-12-03T03:50:24.636Z,25.52
2022-12-03T03:52:51.452Z,31.50
2022-12-03T03:55:20.436Z,20.58
2022-12-03T03:57:48.161Z,23.85
2022-12-03T04:00:15.339Z,21.60
2022-12-03T04:02:42.190Z,23.92
2022-12-03T04:05:16.317Z,20.20
2022-12-03T04:07:43.117Z,24.23
2022-12-03T04:10:29.681Z,20.67
2022-12-03T04:12:56.385Z,21.88
2022-12-03T04:15:23.631Z,21.45
2022-12-03T04:18:11.053Z,20.42
2022-12-03T04:20:38.210Z,21.27
2022-12-03T04:23:05.699Z,21.38
2022-12-03T04:25:51.353Z,19.27
2022-12-03T04:28:37.042Z,18.75
2022-12-03T04:31:23.766Z,20.70
2022-12-03T04:34:09.168Z,23.05
2022-12-03T04:36:35.981Z,20.23
2022-12-03T04:39:02.914Z,20.20
2022-12-03T04:41:29.556Z,17.27
2022-12-03T04:44:14.720Z,20.77
2022-12-03T04:46:41.331Z,21.38
2022-12-03T04:49:08.001Z,17.90
2022-12-03T04:51:34.615Z,18.75
2022-12-03T04:54:01.478Z,19.55
2022-12-03T04:56:28.049Z,19.95
2022-12-03T04:58:54.678Z,19.23
2022-12-03T05:01:21.456Z,19.25
2022-12-03T05:03:48.154Z,19.67
2022-12-03T05:06:14.890Z,19.75
2022-12-03T05:08:41.523Z,24.85
2022-12-03T05:11:08.148Z,22.92
2022-12-03T05:13:34.897Z,20.83
2022-12-03T05:16:01.491Z,18.80
2022-12-03T05:18:28.292Z,18.92
2022-12-03T05:20:54.941Z,20.73
2022-12-03T05:23:21.991Z,20.30
2022-12-03T05:25:48.620Z,21.15
2022-12-03T05:28:15.511Z,21.17
2022-12-03T05:30:42.232Z,17.65
2022-12-03T05:33:09.034Z,18.15
2022-12-03T05:35:35.656Z,19.90
2022-12-03T05:38:02.328Z,21.50
2022-12-03T05:40:28.987Z,17.73
2022-12-03T05:42:56.943Z,22.05
2022-12-03T05:45:25.806Z,20.58
2022-12-03T05:47:54.458Z,18.98
2022-12-03T05:50:23.280Z,20.17
2022-12-03T05:52:50.274Z,20.20
2022-12-03T05:55:17.531Z,21.98
2022-12-03T05:57:44.418Z,22.10
2022-12-03T06:00:20.490Z,23.05
2022-12-03T06:02:47.294Z,24.52
2022-12-03T06:05:15.967Z,20.48
2022-12-03T06:07:43.222Z,19.30
2022-12-03T06:10:12.273Z,25.58
2022-12-03T06:12:39.097Z,18.80
2022-12-03T06:15:06.862Z,19.45
2022-12-03T06:17:33.483Z,26.45
2022-12-03T06:20:00.274Z,23.85
2022-12-03T06:22:27.293Z,23.80
2022-12-03T06:24:54.491Z,26.00
2022-12-03T06:27:21.291Z,24.15
2022-12-03T06:29:47.950Z,32.20
2022-12-03T06:32:14.875Z,27.92
2022-12-03T06:34:41.520Z,22.23
2022-12-03T06:37:08.157Z,128.10
2022-12-03T06:39:35.038Z,31.33
2022-12-03T06:42:01.961Z,23.65
2022-12-03T06:44:28.775Z,37.95
2022-12-03T06:46:55.431Z,42.50
2022-12-03T06:49:22.067Z,26.02
2022-12-03T06:51:48.813Z,23.08
2022-12-03T06:54:15.429Z,22.85
2022-12-03T06:56:45.369Z,24.60
2022-12-03T06:59:12.546Z,26.23
2022-12-03T07:01:39.378Z,23.85
2022-12-03T07:04:06.221Z,20.77
2022-12-03T07:06:32.856Z,27.23
2022-12-03T07:08:59.485Z,24.52
2022-12-03T07:11:32.062Z,24.60
2022-12-03T07:14:05.175Z,24.83
2022-12-03T07:16:33.034Z,23.55
2022-12-03T07:18:59.824Z,24.58
2022-12-03T07:21:26.590Z,25.60
2022-12-03T07:23:53.245Z,25.48
2022-12-03T07:26:19.973Z,27.77
2022-12-03T07:28:48.206Z,29.27
2022-12-03T07:31:15.345Z,26.23
2022-12-03T07:33:42.331Z,31.10
2022-12-03T07:36:09.642Z,32.88
2022-12-03T07:38:36.358Z,32.25
2022-12-03T07:41:05.546Z,28.63
2022-12-03T07:43:32.466Z,32.05
2022-12-03T07:45:59.050Z,32.13
2022-12-03T07:48:25.655Z,32.30
2022-12-03T07:50:52.397Z,34.05
2022-12-03T07:53:19.064Z,29.67
2022-12-03T07:55:45.699Z,34.97
2022-12-03T07:58:12.401Z,37.80
2022-12-03T08:00:39.184Z,33.70
2022-12-03T08:03:05.812Z,28.63
2022-12-03T08:05:32.540Z,33.25
2022-12-03T08:07:59.383Z,33.58
2022-12-03T08:10:26.548Z,29.50
2022-12-03T08:12:53.868Z,28.75
2022-12-03T08:15:25.270Z,29.95
2022-12-03T08:17:56.180Z,30.40
2022-12-03T08:20:25.702Z,31.38
2022-12-03T08:22:53.778Z,35.03
2022-12-03T08:25:26.483Z,34.58
2022-12-03T08:27:57.138Z,33.03
2022-12-03T08:30:23.892Z,33.90
2022-12-03T08:32:51.868Z,33.45
2022-12-03T08:35:27.748Z,33.97
2022-12-03T08:38:02.451Z,30.90
2022-12-03T08:40:36.827Z,34.22
2022-12-03T08:43:13.029Z,38.20
2022-12-03T08:45:42.023Z,29.95
2022-12-03T08:48:32.564Z,30.73
2022-12-03T08:51:03.533Z,30.70
2022-12-03T08:53:38.682Z,29.80
2022-12-03T08:56:22.138Z,35.50
2022-12-03T08:58:58.769Z,29.40
2022-12-03T09:01:30.640Z,34.58
2022-12-03T09:04:19.561Z,35.92
2022-12-03T09:06:46.198Z,33.38
2022-12-03T09:09:12.786Z,34.95
2022-12-03T09:11:39.849Z,39.08
2022-12-03T09:14:06.552Z,37.50
2022-12-03T09:16:33.380Z,32.78
2022-12-03T09:19:00.110Z,38.60
2022-12-03T09:21:26.791Z,35.30
2022-12-03T09:23:53.427Z,38.25
2022-12-03T09:26:20.085Z,35.55
2022-12-03T09:28:48.174Z,40.17
2022-12-03T09:31:16.494Z,35.33
2022-12-03T09:33:43.481Z,37.45
2022-12-03T09:36:10.120Z,35.67
2022-12-03T09:38:36.777Z,30.40
2022-12-03T09:41:03.491Z,33.25
2022-12-03T09:44:02.626Z,35.22
2022-12-03T09:46:22.328Z,35.65
2022-12-03T09:48:49.367Z,37.20
2022-12-03T09:51:16.060Z,37.88
2022-12-03T09:53:42.851Z,35.08
2022-12-03T09:56:17.441Z,35.00
2022-12-03T09:58:44.162Z,37.38
2022-12-03T10:01:14.746Z,34.22
2022-12-03T10:03:47.451Z,40.47
2022-12-03T10:06:19.879Z,35.80
2022-12-03T10:08:53.459Z,33.83
2022-12-03T10:11:25.024Z,31.63
2022-12-03T10:13:53.925Z,35.42
2022-12-03T10:16:21.260Z,41.17
2022-12-03T10:19:00.183Z,37.67
2022-12-03T10:21:37.609Z,37.23
2022-12-03T10:24:29.032Z,39.38
2022-12-03T10:26:58.815Z,38.47
2022-12-03T10:32:06.103Z,42.78
2022-12-03T10:34:39.405Z,37.42
2022-12-03T10:37:22.716Z,36.30
2022-12-03T10:39:59.818Z,43.35
2022-12-03T10:42:32.118Z,41.78
2022-12-03T10:45:19.408Z,41.80
2022-12-03T10:48:05.044Z,38.72
2022-12-03T10:50:32.449Z,42.95
2022-12-03T10:52:59.282Z,42.58
2022-12-03T10:55:27.163Z,42.72
2022-12-03T10:57:53.918Z,42.00
2022-12-03T11:00:20.961Z,38.30
2022-12-03T11:02:54.921Z,46.25
2022-12-03T11:05:29.370Z,47.90
2022-12-03T11:07:56.765Z,39.85
2022-12-03T11:10:23.831Z,49.28
2022-12-03T11:13:28.070Z,37.35
2022-12-03T11:15:55.632Z,44.90
2022-12-03T11:18:37.375Z,42.78
2022-12-03T11:21:11.057Z,48.55
2022-12-03T11:23:47.000Z,48.63
2022-12-03T11:26:36.342Z,45.85
2022-12-03T11:29:04.965Z,44.72
2022-12-03T11:31:46.857Z,46.58
2022-12-03T11:34:22.515Z,43.38
2022-12-03T11:37:11.244Z,42.22
2022-12-03T11:39:55.520Z,45.13
2022-12-03T11:42:28.611Z,44.63
2022-12-03T11:45:04.430Z,49.10
2022-12-03T11:47:38.376Z,43.83
2022-12-03T11:50:19.960Z,46.92
2022-12-03T11:52:50.253Z,44.35
2022-12-03T11:55:28.138Z,48.35
2022-12-03T11:58:03.737Z,40.40
2022-12-03T12:00:30.790Z,44.08
2022-12-03T12:02:58.619Z,48.55
2022-12-03T12:05:34.313Z,45.38
2022-12-03T12:08:02.363Z,44.97
2022-12-03T12:11:01.886Z,42.08
2022-12-03T12:13:31.611Z,46.30
2022-12-03T12:18:35.548Z,45.15
2022-12-03T12:21:43.070Z,45.15
2022-12-03T12:24:28.094Z,40.65
2022-12-03T12:27:18.479Z,44.75
2022-12-03T12:29:50.414Z,48.53
2022-12-03T12:32:18.682Z,47.60
2022-12-03T12:34:47.418Z,45.50
2022-12-03T12:37:25.829Z,42.60
2022-12-03T12:39:56.422Z,46.65
2022-12-03T12:42:35.717Z,49.05
2022-12-03T12:45:13.851Z,47.45
2022-12-03T12:47:49.622Z,46.92
2022-12-03T12:50:18.559Z,49.08
2022-12-03T12:52:52.367Z,45.90
2022-12-03T12:55:19.288Z,51.83
2022-12-03T12:57:46.159Z,45.70
2022-12-03T13:00:18.739Z,48.67
2022-12-03T13:02:51.034Z,43.70
2022-12-03T13:05:18.053Z,47.03
2022-12-03T13:07:45.281Z,50.13
2022-12-03T13:10:24.534Z,46.28
2022-12-03T13:12:51.267Z,47.10
2022-12-03T13:15:45.007Z,51.72
2022-12-03T13:18:24.477Z,46.38
2022-12-03T13:20:51.488Z,48.58
2022-12-03T13:23:37.626Z,41.78
2022-12-03T13:26:34.581Z,48.13
2022-12-03T13:29:16.809Z,45.70
2022-12-03T13:31:58.804Z,49.58
2022-12-03T13:34:31.084Z,55.30
2022-12-03T13:36:58.800Z,51.67
2022-12-03T13:39:35.091Z,45.25
2022-12-03T13:42:35.237Z,50.47
2022-12-03T13:45:02.568Z,49.15
2022-12-03T13:47:29.164Z,45.20
2022-12-03T13:50:03.387Z,53.30
2022-12-03T13:52:32.605Z,48.10
2022-12-03T13:55:02.710Z,46.42
2022-12-03T13:57:29.326Z,52.55
2022-12-03T13:59:56.282Z,50.92
2022-12-03T14:02:23.319Z,46.50
2022-12-03T14:04:51.359Z,50.40
2022-12-03T14:09:46.192Z,49.88
2022-12-03T14:12:30.152Z,45.30
2022-12-03T14:14:57.419Z,48.17
2022-12-03T14:17:24.192Z,51.10
2022-12-03T14:19:50.903Z,50.22
2022-12-03T14:22:19.392Z,52.75
2022-12-03T14:24:46.106Z,49.85
2022-12-03T14:27:12.765Z,44.67
2022-12-03T14:29:39.425Z,54.47
2022-12-03T14:32:06.135Z,48.65
2022-12-03T14:34:32.845Z,47.80
2022-12-03T14:36:59.500Z,45.38
2022-12-03T14:39:26.113Z,48.25
2022-12-03T14:42:11.439Z,53.65
2022-12-03T14:44:38.067Z,49.22
2022-12-03T14:47:04.713Z,53.05
2022-12-03T14:49:31.554Z,48.17
2022-12-03T14:51:58.293Z,51.53
2022-12-03T14:54:24.933Z,53.58
2022-12-03T14:56:51.601Z,51.65
2022-12-03T14:59:21.834Z,51.38
2022-12-03T15:01:52.756Z,48.83
2022-12-03T15:04:19.674Z,50.45
2022-12-03T15:06:46.420Z,50.00
2022-12-03T15:09:13.055Z,48.65
2022-12-03T15:11:45.782Z,52.50
2022-12-03T15:14:12.987Z,48.65
2022-12-03T15:16:39.950Z,56.08
2022-12-03T15:19:06.609Z,50.65
2022-12-03T15:21:34.890Z,51.40
2022-12-03T15:24:02.440Z,52.25
2022-12-03T15:26:30.005Z,44.83
2022-12-03T15:28:56.648Z,49.28
2022-12-03T15:31:23.540Z,48.75
2022-12-03T15:33:50.205Z,44.70
2022-12-03T15:36:16.938Z,52.83
2022-12-03T15:38:43.580Z,48.42
2022-12-03T15:41:24.766Z,53.63
2022-12-03T15:43:52.645Z,51.47
2022-12-03T15:46:20.094Z,53.47
2022-12-03T15:48:47.627Z,54.72
2022-12-03T15:51:14.483Z,48.40
2022-12-03T15:53:41.214Z,53.28
2022-12-03T15:56:08.434Z,52.28
2022-12-03T15:58:35.216Z,50.45
2022-12-03T16:01:01.929Z,51.55
2022-12-03T16:03:28.695Z,49.80
2022-12-03T16:05:55.367Z,48.40
2022-12-03T16:08:22.268Z,48.72
2022-12-03T16:10:48.998Z,53.75
2022-12-03T16:13:15.668Z,51.83
2022-12-03T16:15:42.411Z,46.78
2022-12-03T16:18:09.218Z,47.97
2022-12-03T16:20:35.838Z,47.95
2022-12-03T16:23:02.503Z,57.10
2022-12-03T16:25:29.094Z,51.20
2022-12-03T16:27:56.519Z,49.83
2022-12-03T16:30:24.353Z,52.05
2022-12-03T16:32:51.112Z,52.78
2022-12-03T16:35:17.884Z,49.00
2022-12-03T16:37:44.628Z,48.95
2022-12-03T16:40:11.678Z,48.83
2022-12-03T16:42:38.376Z,52.92
2022-12-03T16:45:08.477Z,52.58
2022-12-03T16:47:35.446Z,51.83
2022-12-03T16:50:07.850Z,47.40
2022-12-03T16:52:35.436Z,49.70
2022-12-03T16:55:02.133Z,53.58
2022-12-03T16:57:33.627Z,51.45
2022-12-03T17:00:01.188Z,49.28
2022-12-03T17:02:28.130Z,52.10
2022-12-03T17:04:55.030Z,48.85
2022-12-03T17:07:21.980Z,52.95
2022-12-03T17:09:48.965Z,52.35
2022-12-03T17:12:15.637Z,59.33
2022-12-03T17:14:42.374Z,50.80
2022-12-03T17:17:09.146Z,49.53
2022-12-03T17:19:35.760Z,53.38
2022-12-03T17:22:02.621Z,51.75
2022-12-03T17:24:29.303Z,57.67
2022-12-03T17:26:56.005Z,52.70
2022-12-03T17:29:22.689Z,54.67
2022-12-03T17:31:49.452Z,57.80
2022-12-03T17:34:16.153Z,49.78
2022-12-03T17:36:42.920Z,54.35
2022-12-03T17:39:09.642Z,54.45
2022-12-03T17:41:36.376Z,56.65
2022-12-03T17:44:09.651Z,46.35
2022-12-03T17:46:37.615Z,48.65
2022-12-03T17:49:04.457Z,52.60
2022-12-03T17:51:31.201Z,58.30
2022-12-03T17:53:57.876Z,50.10
2022-12-03T17:56:24.576Z,49.53
2022-12-03T17:58:51.263Z,50.83
2022-12-03T18:01:17.984Z,52.17
2022-12-03T18:03:44.951Z,50.72
2022-12-03T18:06:11.636Z,54.17
2022-12-03T18:08:38.287Z,58.95
2022-12-03T18:11:05.062Z,52.65
2022-12-03T18:13:31.637Z,52.80
2022-12-03T18:15:58.334Z,59.92
2022-12-03T18:18:25.048Z,51.55
2022-12-03T18:20:53.252Z,52.15
2022-12-03T18:23:19.960Z,56.08
2022-12-03T18:25:46.572Z,59.90
2022-12-03T18:28:13.242Z,48.05
2022-12-03T18:30:39.964Z,47.83
2022-12-03T18:33:06.809Z,53.40
2022-12-03T18:35:33.476Z,49.28
2022-12-03T18:38:00.144Z,51.67
2022-12-03T18:40:27.326Z,49.83
2022-12-03T18:42:55.228Z,62.58
2022-12-03T18:45:21.956Z,58.88
2022-12-03T18:47:48.639Z,53.50
2022-12-03T18:50:15.415Z,54.03
2022-12-03T18:52:42.103Z,50.60
2022-12-03T18:55:14.580Z,49.58
2022-12-03T18:57:41.207Z,54.45
2022-12-03T19:00:13.212Z,54.78
2022-12-03T19:05:27.213Z,60.72
2022-12-03T19:07:55.488Z,53.70
2022-12-03T19:10:22.826Z,53.63
2022-12-03T19:12:49.937Z,59.10
2022-12-03T19:15:16.958Z,56.15
2022-12-03T19:17:48.487Z,52.53
2022-12-03T19:20:15.324Z,53.40
2022-12-03T19:22:41.913Z,51.45
2022-12-03T19:25:08.926Z,54.63
2022-12-03T19:27:35.656Z,53.17
2022-12-03T19:30:02.338Z,56.17
2022-12-03T19:32:29.100Z,51.33
2022-12-03T19:34:55.727Z,49.70
2022-12-03T19:37:22.523Z,53.83
2022-12-03T19:39:53.215Z,53.70
2022-12-03T19:42:20.064Z,53.83
2022-12-03T19:44:46.682Z,44.42
2022-12-03T19:47:13.373Z,51.30
2022-12-03T19:49:39.944Z,57.45
2022-12-03T19:52:06.643Z,50.65
2022-12-03T19:54:33.375Z,52.65
2022-12-03T19:57:00.249Z,53.65
2022-12-03T19:59:26.983Z,53.72
2022-12-03T20:01:53.796Z,46.25
2022-12-03T20:04:20.741Z,51.50
2022-12-03T20:06:48.195Z,53.25
2022-12-03T20:09:18.171Z,50.20
2022-12-03T20:11:45.990Z,56.83
2022-12-03T20:14:15.462Z,52.22
2022-12-03T20:16:42.815Z,55.63
2022-12-03T20:19:12.100Z,54.05
2022-12-03T20:21:40.235Z,52.97
2022-12-03T20:24:08.582Z,55.65
2022-12-03T20:26:35.251Z,53.78
2022-12-03T20:29:01.988Z,52.20
2022-12-03T20:31:31.041Z,47.35
2022-12-03T20:34:02.108Z,52.10
2022-12-03T20:36:31.521Z,52.67
2022-12-03T20:39:00.540Z,53.47
2022-12-03T20:41:27.185Z,50.15
2022-12-03T20:43:54.339Z,47.33
2022-12-03T20:46:25.490Z,50.42
2022-12-03T20:48:53.982Z,48.60
2022-12-03T20:51:22.737Z,51.15
2022-12-03T20:53:49.778Z,45.30
2022-12-03T20:56:20.435Z,47.25
2022-12-03T20:58:50.606Z,43.92
2022-12-03T21:01:19.928Z,44.67
2022-12-03T21:03:47.578Z,51.28
2022-12-03T21:06:15.468Z,51.90
2022-12-03T21:08:43.590Z,46.08
2022-12-03T21:11:13.684Z,47.70
2022-12-03T21:13:44.012Z,47.38
2022-12-03T21:16:14.099Z,50.78
2022-12-03T21:18:41.579Z,46.72
2022-12-03T21:21:10.279Z,46.25
2022-12-03T21:23:37.246Z,42.97
2022-12-03T21:26:08.626Z,48.63
2022-12-03T21:28:35.655Z,48.80
2022-12-03T21:31:05.713Z,46.97
2022-12-03T21:33:33.018Z,52.10
2022-12-03T21:36:00.841Z,49.78
2022-12-03T21:38:28.628Z,43.03
2022-12-03T21:40:56.202Z,42.47
2022-12-03T21:43:23.819Z,51.22
2022-12-03T21:45:51.021Z,43.83
2022-12-03T21:48:18.409Z,45.67
2022-12-03T21:50:45.688Z,47.13
2022-12-03T21:53:13.046Z,47.33
2022-12-03T21:55:40.724Z,43.92
2022-12-03T21:58:10.755Z,43.78
2022-12-03T22:00:37.563Z,44.47
2022-12-03T22:03:07.761Z,49.10
2022-12-03T22:05:34.561Z,47.22
2022-12-03T22:08:01.177Z,42.83
2022-12-03T22:10:28.101Z,47.28
2022-12-03T22:12:54.878Z,42.95
2022-12-03T22:15:21.602Z,41.45
2022-12-03T22:17:48.675Z,49.97
2022-12-03T22:20:15.456Z,44.40
2022-12-03T22:22:42.065Z,44.28
2022-12-03T22:25:08.946Z,43.80
2022-12-03T22:27:35.784Z,43.92
2022-12-03T22:30:03.165Z,41.97
2022-12-03T22:32:29.891Z,40.85
2022-12-03T22:34:56.828Z,41.35
2022-12-03T22:37:24.241Z,38.35
2022-12-03T22:39:50.935Z,37.72
2022-12-03T22:42:17.533Z,39.72
2022-12-03T22:44:44.842Z,39.78
2022-12-03T22:47:11.515Z,36.20
2022-12-03T22:49:38.225Z,41.22
2022-12-03T22:52:04.969Z,35.72
2022-12-03T22:54:31.562Z,38.42
2022-12-03T22:56:58.454Z,33.85
2022-12-03T22:59:25.160Z,37.83
2022-12-03T23:01:51.963Z,38.13
2022-12-03T23:04:18.675Z,35.78
2022-12-03T23:06:45.571Z,34.88
2022-12-03T23:09:12.495Z,35.58
2022-12-03T23:11:39.268Z,35.85
2022-12-03T23:14:05.932Z,39.97
2022-12-03T23:16:34.172Z,35.47
2022-12-03T23:19:02.256Z,36.28
2022-12-03T23:21:31.819Z,35.03
2022-12-03T23:24:00.391Z,35.22
2022-12-03T23:26:28.184Z,32.20
2022-12-03T23:28:55.704Z,34.72
2022-12-03T23:31:28.294Z,33.22
2022-12-03T23:33:56.134Z,36.67
2022-12-03T23:36:24.271Z,38.75
2022-12-03T23:38:51.098Z,38.60
2022-12-03T23:41:20.430Z,37.28
2022-12-03T23:43:47.800Z,32.03
2022-12-03T23:46:17.718Z,36.97
2022-12-03T23:48:45.688Z,36.33
2022-12-03T23:51:15.550Z,39.05
2022-12-03T23:53:43.030Z,35.30
2022-12-03T23:56:12.484Z,37.33
2022-12-03T23:58:39.338Z,36.80
